createdAt,value
2023-03-02T00:00:46.880Z,15.01
2023-03-02T00:03:13.363Z,14.43
2023-03-02T00:05:39.825Z,14.75
2023-03-02T00:08:06.283Z,14.51
2023-03-02T00:10:32.736Z,13.72
2023-03-02T00:12:59.198Z,14.40
2023-03-02T00:15:25.657Z,14.10
2023-03-02T00:17:52.115Z,14.57
2023-03-02T00:20:18.572Z,14.14
2023-03-02T00:22:45.046Z,13.60
2023-03-02T00:25:11.488Z,13.39
2023-03-02T00:27:37.956Z,13.86
2023-03-02T00:30:04.452Z,14.07
2023-03-02T00:32:30.937Z,13.37
2023-03-02T00:34:57.431Z,12.92
2023-03-02T00:37:23.891Z,13.65
2023-03-02T00:39:50.351Z,13.34
2023-03-02T00:42:16.795Z,13.38
2023-03-02T00:44:43.289Z,13.08
2023-03-02T00:47:09.740Z,13.08
2023-03-02T00:49:36.204Z,13.02
2023-03-02T00:52:02.662Z,13.39
2023-03-02T00:54:29.117Z,12.75
2023-03-02T00:56:55.588Z,12.78
2023-03-02T00:59:22.056Z,13.05
2023-03-02T01:01:48.499Z,13.08
2023-03-02T05:06:38.915Z,8.15
2023-03-02T05:09:05.358Z,8.06
2023-03-02T05:11:31.839Z,7.66
2023-03-02T05:13:58.295Z,8.18
2023-03-02T05:16:24.845Z,8.15
2023-03-02T05:18:51.335Z,7.96
2023-03-02T05:21:17.762Z,8.03
2023-03-02T05:23:44.215Z,7.71
2023-03-02T05:26:10.638Z,7.78
2023-03-02T05:28:37.076Z,8.07
2023-03-02T05:31:03.545Z,7.78
2023-03-02T05:33:30.018Z,7.79
2023-03-02T05:35:56.553Z,7.74
2023-03-02T05:38:23.030Z,8.04
2023-03-02T05:40:49.509Z,7.92
2023-03-02T05:43:15.947Z,8.01
2023-03-02T05:45:42.378Z,7.98
2023-03-02T05:48:08.841Z,7.66
2023-03-02T05:50:35.285Z,7.62
2023-03-02T05:53:01.738Z,8.04
2023-03-02T05:55:28.202Z,7.64
2023-03-02T05:57:54.653Z,7.47
2023-03-02T06:00:21.107Z,7.55
2023-03-02T06:02:47.570Z,7.47
2023-03-02T06:05:14.066Z,7.68
2023-03-02T06:07:40.531Z,7.84
2023-03-02T06:10:06.978Z,7.45
2023-03-02T06:12:33.409Z,7.43
2023-03-02T06:14:59.876Z,7.32
2023-03-02T06:17:26.341Z,7.57
2023-03-02T06:19:52.781Z,6.97
2023-03-02T06:22:19.220Z,7.31
2023-03-02T06:24:45.667Z,7.23
2023-03-02T06:27:12.116Z,7.50
2023-03-02T06:29:38.630Z,7.58
2023-03-02T06:32:05.177Z,7.37
2023-03-02T06:34:32.515Z,7.29
2023-03-02T06:36:59.989Z,7.03
2023-03-02T06:39:26.431Z,7.31
2023-03-02T06:41:52.859Z,7.42
2023-03-02T06:44:19.306Z,7.43
2023-03-02T06:46:45.763Z,7.34
2023-03-02T06:49:14.112Z,7.44
2023-03-02T06:51:40.712Z,7.00
2023-03-02T06:54:07.154Z,7.08
2023-03-02T06:56:33.922Z,7.19
2023-03-02T06:59:00.517Z,6.90
2023-03-02T07:01:27.066Z,7.01
2023-03-02T07:03:53.590Z,7.00
2023-03-02T07:06:20.043Z,7.25
2023-03-02T07:08:46.540Z,7.51
2023-03-02T07:11:12.989Z,7.58
2023-03-02T07:13:39.432Z,7.65
2023-03-02T07:16:05.879Z,7.14
2023-03-02T07:18:32.312Z,7.23
2023-03-02T07:20:58.779Z,7.30
2023-03-02T07:23:25.222Z,6.83
2023-03-02T07:25:51.672Z,6.98
2023-03-02T07:28:18.133Z,6.86
2023-03-02T07:30:44.613Z,6.98
2023-03-02T07:33:11.143Z,6.75
2023-03-02T07:35:37.641Z,6.78
2023-03-02T07:38:04.158Z,7.03
2023-03-02T07:40:30.608Z,6.59
2023-03-02T07:42:57.066Z,6.48
2023-03-02T07:45:23.518Z,6.52
2023-03-02T07:47:50.088Z,6.57
2023-03-02T07:50:16.547Z,6.63
2023-03-02T07:52:43.028Z,6.73
2023-03-02T07:55:09.633Z,6.48
2023-03-02T07:57:36.092Z,6.36
2023-03-02T08:00:02.558Z,6.77
2023-03-02T08:02:29.047Z,6.54
2023-03-02T08:04:55.527Z,6.13
2023-03-02T08:07:21.988Z,6.52
2023-03-02T08:09:48.438Z,6.25
2023-03-02T08:12:14.885Z,6.16
2023-03-02T08:14:41.358Z,5.97
2023-03-02T08:17:07.790Z,6.22
2023-03-02T08:19:34.233Z,6.24
2023-03-02T08:22:00.675Z,6.30
2023-03-02T08:24:27.130Z,6.17
2023-03-02T08:26:53.591Z,6.31
2023-03-02T08:29:20.044Z,6.25
2023-03-02T08:31:46.524Z,6.55
2023-03-02T08:34:13.038Z,6.45
2023-03-02T08:36:39.505Z,6.28
2023-03-02T08:39:05.965Z,6.25
2023-03-02T08:41:32.809Z,6.23
2023-03-02T08:43:59.421Z,6.07
2023-03-02T08:46:25.883Z,6.71
2023-03-02T08:48:52.360Z,6.60
2023-03-02T08:51:18.844Z,6.28
2023-03-02T08:53:45.290Z,6.48
2023-03-02T08:56:11.755Z,6.63
2023-03-02T08:58:38.189Z,6.42
2023-03-02T09:01:04.634Z,6.37
2023-03-02T09:03:31.093Z,6.60
2023-03-02T09:05:57.550Z,6.76
2023-03-02T09:08:23.994Z,6.82
2023-03-02T09:10:50.455Z,6.83
2023-03-02T09:13:16.908Z,6.94
2023-03-02T09:15:43.354Z,6.94
2023-03-02T09:18:09.822Z,7.29
2023-03-02T09:20:36.268Z,7.26
2023-03-02T09:23:02.752Z,7.46
2023-03-02T09:25:29.188Z,7.63
2023-03-02T09:27:55.643Z,7.38
2023-03-02T09:30:22.117Z,7.88
2023-03-02T09:32:48.797Z,8.39
2023-03-02T09:35:15.373Z,8.59
2023-03-02T09:37:44.211Z,8.92
2023-03-02T09:40:10.871Z,8.88
2023-03-02T09:42:43.915Z,8.49
2023-03-02T09:45:10.959Z,9.08
2023-03-02T09:47:37.388Z,9.21
2023-03-02T09:50:03.827Z,9.41
2023-03-02T09:52:30.321Z,9.30
2023-03-02T09:54:56.795Z,9.89
2023-03-02T09:57:23.265Z,9.99
2023-03-02T09:59:49.705Z,10.06
2023-03-02T10:02:16.154Z,9.83
2023-03-02T10:04:42.634Z,9.93
2023-03-02T10:07:09.111Z,10.50
2023-03-02T10:09:35.557Z,9.87
2023-03-02T10:12:02.017Z,9.90
2023-03-02T10:14:28.516Z,10.33
2023-03-02T10:16:54.946Z,10.65
2023-03-02T10:19:21.423Z,10.38
2023-03-02T10:21:47.882Z,9.93
2023-03-02T10:24:14.335Z,10.40
2023-03-02T10:26:40.786Z,10.46
2023-03-02T10:29:07.251Z,10.61
2023-03-02T10:31:33.707Z,11.15
2023-03-02T10:34:00.181Z,10.26
2023-03-02T10:36:26.661Z,10.26
2023-03-02T10:38:53.114Z,10.56
2023-03-02T10:41:19.582Z,10.58
2023-03-02T10:43:46.050Z,10.42
2023-03-02T10:46:12.622Z,10.67
2023-03-02T10:48:40.887Z,10.63
2023-03-02T10:51:07.629Z,10.17
2023-03-02T10:53:34.106Z,10.26
2023-03-02T10:56:00.555Z,10.23
2023-03-02T10:58:27.012Z,10.87
2023-03-02T11:00:53.467Z,10.35
2023-03-02T11:03:19.932Z,11.00
2023-03-02T11:05:46.399Z,11.79
2023-03-02T11:08:12.862Z,10.76
2023-03-02T11:10:39.330Z,10.92
2023-03-02T11:13:05.797Z,11.10
2023-03-02T11:15:35.359Z,11.35
2023-03-02T11:18:01.890Z,11.26
2023-03-02T11:20:28.423Z,11.09
2023-03-02T11:22:54.869Z,11.03
2023-03-02T11:25:21.311Z,10.86
2023-03-02T11:27:47.763Z,10.98
2023-03-02T11:30:14.259Z,11.46
2023-03-02T11:32:40.802Z,11.82
2023-03-02T11:35:07.336Z,13.32
2023-03-02T11:37:33.816Z,14.58
2023-03-02T11:40:00.263Z,15.81
2023-03-02T11:42:26.764Z,17.41
2023-03-02T11:44:53.290Z,18.94
2023-03-02T11:47:19.794Z,21.57
2023-03-02T11:49:46.316Z,23.83
2023-03-02T11:52:12.973Z,26.21
2023-03-02T11:54:40.143Z,28.65
2023-03-02T11:57:06.601Z,30.74
2023-03-02T11:59:33.189Z,33.97
2023-03-02T12:01:59.697Z,35.83
2023-03-02T12:04:26.548Z,37.89
2023-03-02T12:06:53.086Z,40.82
2023-03-02T12:09:19.576Z,42.43
2023-03-02T12:11:46.084Z,43.70
2023-03-02T12:14:12.563Z,46.02
2023-03-02T12:16:39.127Z,46.20
2023-03-02T12:19:05.649Z,47.19
2023-03-02T12:21:32.137Z,47.98
2023-03-02T12:23:58.593Z,48.80
2023-03-02T12:26:25.101Z,50.23
2023-03-02T12:28:51.547Z,49.29
2023-03-02T12:31:18.062Z,49.88
2023-03-02T12:33:44.575Z,49.25
2023-03-02T12:36:11.039Z,49.62
2023-03-02T12:38:37.545Z,50.87
2023-03-02T12:41:04.062Z,50.75
2023-03-02T12:43:30.576Z,49.59
2023-03-02T12:45:57.079Z,50.02
2023-03-02T12:48:23.605Z,48.61
2023-03-02T12:50:50.066Z,49.26
2023-03-02T12:53:16.518Z,48.45
2023-03-02T12:55:43.012Z,48.55
2023-03-02T12:58:09.474Z,47.93
2023-03-02T13:00:35.931Z,48.15
2023-03-02T13:03:02.443Z,47.72
2023-03-02T13:05:28.935Z,47.85
2023-03-02T13:07:55.388Z,47.02
2023-03-02T13:10:21.944Z,47.06
2023-03-02T13:12:48.482Z,47.15
2023-03-02T13:15:14.940Z,46.95
2023-03-02T13:17:41.417Z,46.22
2023-03-02T13:20:07.883Z,46.51
2023-03-02T13:22:34.397Z,46.44
2023-03-02T13:25:00.969Z,44.89
2023-03-02T13:27:27.482Z,45.16
2023-03-02T13:29:53.953Z,44.06
2023-03-02T13:32:20.445Z,44.08
2023-03-02T13:34:46.918Z,44.22
2023-03-02T13:37:13.386Z,43.85
2023-03-02T13:39:39.871Z,43.44
2023-03-02T13:42:06.327Z,42.72
2023-03-02T13:44:32.782Z,42.96
2023-03-02T13:46:59.251Z,42.60
2023-03-02T13:49:25.703Z,41.81
2023-03-02T13:51:52.239Z,42.13
2023-03-02T13:54:18.701Z,41.85
2023-03-02T13:56:45.198Z,40.63
2023-03-02T13:59:11.662Z,40.35
2023-03-02T14:01:38.116Z,39.77
2023-03-02T14:04:04.604Z,39.65
2023-03-02T14:06:31.551Z,38.81
2023-03-02T14:08:58.203Z,38.78
2023-03-02T14:11:24.649Z,39.07
2023-03-02T14:13:51.113Z,38.07
2023-03-02T14:16:17.598Z,37.44
2023-03-02T14:18:44.046Z,36.91
2023-03-02T14:21:10.573Z,37.25
2023-03-02T14:23:37.071Z,37.04
2023-03-02T14:26:03.603Z,36.63
2023-03-02T14:28:30.078Z,36.00
2023-03-02T14:30:56.581Z,35.90
2023-03-02T14:33:23.094Z,34.71
2023-03-02T14:35:49.599Z,34.86
2023-03-02T14:38:16.072Z,35.04
2023-03-02T14:40:42.772Z,34.49
2023-03-02T14:43:09.319Z,35.14
2023-03-02T14:45:35.849Z,33.55
2023-03-02T14:48:02.325Z,34.05
2023-03-02T14:50:28.784Z,34.83
2023-03-02T14:52:55.246Z,33.75
2023-03-02T14:55:21.687Z,32.94
2023-03-02T14:57:48.150Z,32.75
2023-03-02T15:00:14.599Z,32.50
2023-03-02T15:02:41.146Z,32.01
2023-03-02T15:05:07.715Z,31.42
2023-03-02T15:07:34.188Z,31.33
2023-03-02T15:10:00.632Z,31.03
2023-03-02T15:12:27.098Z,31.56
2023-03-02T15:14:53.546Z,30.33
2023-03-02T15:17:20.037Z,29.97
2023-03-02T15:19:46.607Z,30.01
2023-03-02T15:22:13.079Z,29.47
2023-03-02T15:24:39.539Z,29.32
2023-03-02T15:27:05.981Z,28.69
2023-03-02T15:29:32.439Z,28.30
2023-03-02T15:31:59.029Z,28.61
2023-03-02T15:34:25.549Z,28.36
2023-03-02T15:36:52.039Z,28.44
2023-03-02T15:39:18.503Z,28.54
2023-03-02T15:41:44.947Z,28.10
2023-03-02T15:44:11.431Z,28.52
2023-03-02T15:46:37.938Z,28.27
2023-03-02T15:49:04.438Z,27.90
2023-03-02T15:51:30.897Z,27.22
2023-03-02T15:53:57.362Z,27.33
2023-03-02T15:56:26.577Z,26.80
2023-03-02T15:58:54.866Z,26.66
2023-03-02T16:01:21.372Z,26.09
2023-03-02T16:03:47.876Z,26.63
2023-03-02T16:06:14.356Z,26.11
2023-03-02T16:08:40.858Z,25.74
2023-03-02T16:11:07.373Z,25.69
2023-03-02T16:13:33.832Z,25.52
2023-03-02T16:16:00.291Z,25.44
2023-03-02T16:18:26.760Z,24.78
2023-03-02T16:20:53.217Z,24.38
2023-03-02T16:23:19.686Z,24.03
2023-03-02T16:25:46.137Z,25.04
2023-03-02T16:28:12.580Z,24.23
2023-03-02T16:30:39.078Z,24.66
2023-03-02T16:33:05.532Z,24.80
2023-03-02T16:35:32.010Z,24.18
2023-03-02T16:37:58.506Z,24.93
2023-03-02T16:40:24.978Z,23.83
2023-03-02T16:42:51.444Z,23.86
2023-03-02T16:45:17.902Z,24.07
2023-03-02T16:47:44.384Z,23.95
2023-03-02T16:50:10.862Z,23.62
2023-03-02T16:52:37.327Z,23.29
2023-03-02T16:55:03.792Z,22.39
2023-03-02T16:57:30.271Z,23.39
2023-03-02T16:59:56.735Z,22.99
2023-03-02T17:02:23.195Z,22.40
2023-03-02T17:04:49.672Z,21.91
2023-03-02T17:07:16.122Z,21.43
2023-03-02T17:09:42.561Z,22.11
2023-03-02T17:12:09.023Z,21.18
2023-03-02T17:14:35.518Z,21.61
2023-03-02T17:17:05.052Z,21.51
2023-03-02T17:19:31.512Z,21.62
2023-03-02T17:21:57.959Z,21.58
2023-03-02T17:24:24.422Z,21.91
2023-03-02T17:26:50.905Z,21.75
2023-03-02T17:29:17.347Z,21.85
2023-03-02T17:31:43.799Z,22.05
2023-03-02T17:34:10.268Z,21.82
2023-03-02T17:36:36.935Z,21.81
2023-03-02T17:39:03.429Z,21.49
2023-03-02T17:41:29.881Z,22.07
2023-03-02T17:43:56.332Z,21.92
2023-03-02T17:46:22.843Z,21.38
2023-03-02T17:48:49.470Z,21.14
2023-03-02T17:51:15.937Z,21.42
2023-03-02T17:53:42.402Z,21.03
2023-03-02T17:56:08.880Z,21.30
2023-03-02T17:58:44.648Z,21.23
2023-03-02T18:01:11.868Z,21.54
2023-03-02T18:03:38.434Z,21.27
2023-03-02T18:06:04.949Z,21.43
2023-03-02T18:08:31.423Z,22.20
2023-03-02T18:10:57.861Z,22.71
2023-03-02T18:13:24.309Z,23.79
2023-03-02T18:15:50.788Z,24.76
2023-03-02T18:18:17.258Z,25.01
2023-03-02T18:20:43.737Z,26.29
2023-03-02T18:23:10.211Z,26.80
2023-03-02T18:25:36.648Z,28.04
2023-03-02T18:28:03.124Z,29.58
2023-03-02T18:30:29.566Z,31.20
2023-03-02T18:32:56.042Z,31.07
2023-03-02T18:35:22.512Z,32.97
2023-03-02T18:37:48.945Z,34.28
2023-03-02T18:40:15.409Z,34.42
2023-03-02T18:42:41.919Z,35.98
2023-03-02T18:45:08.361Z,37.61
2023-03-02T18:47:34.852Z,38.12
2023-03-02T18:50:01.379Z,39.69
2023-03-02T18:52:27.875Z,41.31
2023-03-02T18:54:54.358Z,42.48
2023-03-02T18:57:20.819Z,43.25
2023-03-02T18:59:47.282Z,44.73
2023-03-02T19:02:13.801Z,46.48
2023-03-02T19:04:40.280Z,47.58
2023-03-02T19:07:06.746Z,47.07
2023-03-02T19:09:33.197Z,49.49
2023-03-02T19:11:59.670Z,48.94
2023-03-02T19:14:26.143Z,50.50
2023-03-02T19:16:52.606Z,50.27
2023-03-02T19:19:19.051Z,52.24
2023-03-02T19:21:45.504Z,52.85
2023-03-02T19:24:11.943Z,53.78
2023-03-02T19:26:38.401Z,53.33
2023-03-02T19:29:04.897Z,54.39
2023-03-02T19:31:31.445Z,56.02
2023-03-02T19:33:57.980Z,56.08
2023-03-02T19:36:24.444Z,56.57
2023-03-02T19:38:50.915Z,57.72
2023-03-02T19:41:17.381Z,57.75
2023-03-02T19:43:43.839Z,59.35
2023-03-02T19:46:10.436Z,57.90
2023-03-02T19:48:36.904Z,59.50
2023-03-02T19:51:03.345Z,59.50
2023-03-02T19:53:29.817Z,59.99
2023-03-02T19:55:56.261Z,61.14
2023-03-02T19:58:22.702Z,62.05
2023-03-02T20:00:49.216Z,62.23
2023-03-02T20:03:15.715Z,64.34
2023-03-02T20:05:42.165Z,62.17
2023-03-02T20:08:08.632Z,62.67
2023-03-02T20:10:35.099Z,61.86
2023-03-02T20:13:01.566Z,63.00
2023-03-02T20:15:28.069Z,63.82
2023-03-02T20:17:54.529Z,62.55
2023-03-02T20:20:21.008Z,62.24
2023-03-02T20:22:47.442Z,62.73
2023-03-02T20:25:13.909Z,63.03
2023-03-02T20:27:40.379Z,63.42
2023-03-02T20:30:06.830Z,62.61
2023-03-02T20:32:33.302Z,61.16
2023-03-02T20:34:59.793Z,62.07
2023-03-02T20:37:26.268Z,61.12
2023-03-02T20:39:52.735Z,60.61
2023-03-02T20:42:19.180Z,60.15
2023-03-02T20:44:45.684Z,59.92
2023-03-02T20:47:12.252Z,59.20
2023-03-02T20:49:38.712Z,58.19
2023-03-02T20:52:05.155Z,58.81
2023-03-02T20:54:31.598Z,57.48
2023-03-02T20:56:58.057Z,57.63
2023-03-02T20:59:24.538Z,56.40
2023-03-02T21:01:51.000Z,56.48
2023-03-02T21:04:17.524Z,54.92
2023-03-02T21:06:44.037Z,55.34
2023-03-02T21:09:10.496Z,54.47
2023-03-02T21:11:36.994Z,53.52
2023-03-02T21:14:03.599Z,54.53
2023-03-02T21:16:30.087Z,52.54
2023-03-02T21:18:56.546Z,52.71
2023-03-02T21:21:32.548Z,52.54
2023-03-02T21:24:05.853Z,51.39
2023-03-02T21:26:32.319Z,51.05
2023-03-02T21:28:58.782Z,51.06
2023-03-02T21:31:25.311Z,50.99
2023-03-02T21:33:51.817Z,49.46
2023-03-02T21:36:18.296Z,50.29
2023-03-02T21:38:44.767Z,49.23
2023-03-02T21:41:11.226Z,47.97
2023-03-02T21:43:37.717Z,47.55
2023-03-02T21:46:04.217Z,47.46
2023-03-02T21:48:30.694Z,46.36
2023-03-02T21:50:57.164Z,46.08
2023-03-02T21:53:23.602Z,45.46
2023-03-02T21:55:50.063Z,45.06
2023-03-02T21:58:16.522Z,45.18
2023-03-02T22:00:43.007Z,44.14
2023-03-02T22:03:09.488Z,43.71
2023-03-02T22:05:35.951Z,44.05
2023-03-02T22:08:02.412Z,42.82
2023-03-02T22:10:28.898Z,42.51
2023-03-02T22:12:55.354Z,42.64
2023-03-02T22:15:21.835Z,41.66
2023-03-02T22:17:48.299Z,41.57
2023-03-02T22:20:14.789Z,40.17
2023-03-02T22:22:41.259Z,39.96
2023-03-02T22:25:07.704Z,38.95
2023-03-02T22:27:34.187Z,39.20
2023-03-02T22:30:00.659Z,38.61
2023-03-02T22:32:27.155Z,37.98
2023-03-02T22:34:53.684Z,37.68
2023-03-02T22:37:20.192Z,37.44
2023-03-02T22:39:46.662Z,36.88
2023-03-02T22:42:13.129Z,36.63
2023-03-02T22:44:39.606Z,36.20
2023-03-02T22:47:06.076Z,35.51
2023-03-02T22:49:32.539Z,35.37
2023-03-02T22:51:59.003Z,34.96
2023-03-02T22:54:25.462Z,34.97
2023-03-02T22:56:51.908Z,34.23
2023-03-02T22:59:18.375Z,34.59
2023-03-02T23:01:44.845Z,34.29
2023-03-02T23:04:11.295Z,34.26
2023-03-02T23:06:37.778Z,33.83
2023-03-02T23:09:04.253Z,33.30
2023-03-02T23:11:30.715Z,33.30
2023-03-02T23:13:57.172Z,33.04
2023-03-02T23:16:23.691Z,32.62
2023-03-02T23:18:50.199Z,32.52
2023-03-02T23:21:16.660Z,32.71
2023-03-02T23:23:43.150Z,32.58
2023-03-02T23:26:09.601Z,31.61
2023-03-02T23:28:36.045Z,31.48
2023-03-02T23:31:02.510Z,31.00
2023-03-02T23:33:28.950Z,31.71
2023-03-02T23:35:55.402Z,30.85
2023-03-02T23:38:21.935Z,30.50
2023-03-02T23:40:48.408Z,30.42
2023-03-02T23:43:14.867Z,30.33
2023-03-02T23:45:41.378Z,29.93
2023-03-02T23:48:07.896Z,30.03
2023-03-02T23:50:34.369Z,29.43
2023-03-02T23:53:00.837Z,29.67
2023-03-02T23:55:27.302Z,29.93
2023-03-02T23:57:53.765Z,29.28
